Time;durP1;ratioP1;P1;durP2;ratioP2;P2;SDS_P1;SDS_P2;PMS_P1;PMS_P2;Temp;Humidity;BMP_temperature;BMP_pressure;BME280_temperature;BME280_humidity;BME280_pressure;Samples;Min_cycle;Max_cycle;Signal;HPM_P1;HPM_P2
2021/07/26 07:48:50;;;;;;;4.78;3.22;;;;;;;;;;5064932;23;20060;-82
2021/07/26 08:19:32;;;;;;;4.30;3.42;;;;;;;;;;4937316;29;20043;-81
2021/07/26 08:21:58;;;;;;;4.05;3.53;;;;;;;;;;4938805;29;20035;-82
2021/07/26 08:24:24;;;;;;;3.97;3.17;;;;;;;;;;4938677;29;20126;-82
2021/07/26 08:26:49;;;;;;;4.15;3.53;;;;;;;;;;4939037;29;20036;-79
2021/07/26 08:29:15;;;;;;;6.00;3.70;;;;;;;;;;4938806;29;20106;-84
2021/07/26 08:31:40;;;;;;;5.22;3.38;;;;;;;;;;4938577;29;20031;-80
2021/07/26 08:34:06;;;;;;;4.57;3.40;;;;;;;;;;4938671;29;20024;-84
2021/07/26 08:36:31;;;;;;;4.70;3.10;;;;;;;;;;4938478;29;20023;-84
2021/07/26 08:38:56;;;;;;;3.40;2.83;;;;;;;;;;4938645;29;20032;-85
2021/07/26 08:41:22;;;;;;;3.20;2.90;;;;;;;;;;4938534;29;20016;-84
2021/07/26 08:43:48;;;;;;;3.35;2.95;;;;;;;;;;4921298;29;20070;-84
2021/07/26 08:46:18;;;;;;;3.78;2.65;;;;;;;;;;4938383;29;20027;-84
2021/07/26 08:48:46;;;;;;;5.10;3.15;;;;;;;;;;4938600;29;20063;-83
2021/07/26 08:51:15;;;;;;;3.22;2.92;;;;;;;;;;4938502;29;20035;-82
2021/07/26 08:53:42;;;;;;;3.20;2.55;;;;;;;;;;4938198;29;20032;-83
2021/07/26 08:56:08;;;;;;;3.35;3.03;;;;;;;;;;4938147;29;20032;-83
2021/07/26 08:58:35;;;;;;;3.78;3.03;;;;;;;;;;4938367;29;20394;-82
2021/07/26 09:01:01;;;;;;;4.53;3.33;;;;;;;;;;4938263;29;20028;-82
2021/07/26 09:03:27;;;;;;;4.22;3.17;;;;;;;;;;4938177;29;20058;-82
2021/07/26 09:05:53;;;;;;;3.83;3.15;;;;;;;;;;4939194;29;20019;-82
2021/07/26 09:08:18;;;;;;;4.28;3.60;;;;;;;;;;4942402;29;20107;-82
2021/07/26 09:10:44;;;;;;;5.97;3.65;;;;;;;;;;4946547;23;20577;-83
2021/07/26 09:13:11;;;;;;;4.63;3.78;;;;;;;;;;4938131;29;20083;-87
2021/07/26 09:15:37;;;;;;;5.75;3.50;;;;;;;;;;4937939;29;20039;-84
2021/07/26 09:18:10;;;;;;;3.95;3.00;;;;;;;;;;4938070;29;20024;-84
2021/07/26 09:20:39;;;;;;;3.70;3.15;;;;;;;;;;4938020;29;20080;-87
2021/07/26 09:23:18;;;;;;;5.55;3.50;;;;;;;;;;4938883;29;20030;-86
2021/07/26 09:25:45;;;;;;;5.03;3.30;;;;;;;;;;4937495;29;20438;-87
2021/07/26 09:28:18;;;;;;;3.75;3.33;;;;;;;;;;4938263;29;20136;-85
2021/07/26 09:30:51;;;;;;;3.42;3.10;;;;;;;;;;4920622;29;20071;-78
2021/07/26 09:33:28;;;;;;;3.92;3.47;;;;;;;;;;4937497;29;20043;-75
2021/07/26 09:36:20;;;;;;;8.48;4.03;;;;;;;;;;4937372;29;20064;-78
2021/07/26 09:38:48;;;;;;;4.10;3.67;;;;;;;;;;4937253;29;20026;-78
2021/07/26 09:41:15;;;;;;;4.63;3.50;;;;;;;;;;4937320;29;20023;-78
2021/07/26 09:43:41;;;;;;;5.18;2.88;;;;;;;;;;4937299;29;20075;-78
2021/07/26 09:46:07;;;;;;;5.93;2.30;;;;;;;;;;4937396;29;20032;-77
2021/07/26 09:48:33;;;;;;;6.18;3.00;;;;;;;;;;4937493;29;20024;-82
2021/07/26 09:51:00;;;;;;;5.60;2.83;;;;;;;;;;4920370;29;20024;-82
2021/07/26 09:53:27;;;;;;;5.18;2.30;;;;;;;;;;4937543;29;20028;-81
2021/07/26 09:55:58;;;;;;;5.75;3.03;;;;;;;;;;4937539;29;20114;-82
2021/07/26 09:58:37;;;;;;;6.15;3.00;;;;;;;;;;4937141;29;20106;-82
2021/07/26 10:01:03;;;;;;;7.07;3.45;;;;;;;;;;4920088;29;20031;-78
2021/07/26 10:03:29;;;;;;;7.45;4.18;;;;;;;;;;4937058;29;20050;-75
2021/07/26 10:05:55;;;;;;;6.22;3.33;;;;;;;;;;4936647;29;20023;-77
2021/07/26 10:08:21;;;;;;;4.05;2.65;;;;;;;;;;4920012;29;20485;-77
2021/07/26 10:10:47;;;;;;;5.10;2.92;;;;;;;;;;4916454;29;20499;-78
2021/07/26 10:13:13;;;;;;;6.50;3.30;;;;;;;;;;4917781;29;20115;-76
2021/07/26 10:15:39;;;;;;;4.85;3.08;;;;;;;;;;4917720;29;20032;-77
2021/07/26 10:18:05;;;;;;;3.95;3.03;;;;;;;;;;4917666;29;20083;-77
2021/07/26 10:20:34;;;;;;;6.03;3.30;;;;;;;;;;4917743;29;20027;-76
2021/07/26 10:23:21;;;;;;;4.05;2.95;;;;;;;;;;4917705;29;20043;-76
2021/07/26 10:25:54;;;;;;;3.90;3.15;;;;;;;;;;4917424;29;20032;-76
2021/07/26 10:28:27;;;;;;;4.38;3.08;;;;;;;;;;4917611;29;20024;-77
2021/07/26 10:30:52;;;;;;;4.38;3.03;;;;;;;;;;4916527;29;20119;-77
2021/07/26 10:33:18;;;;;;;6.18;3.45;;;;;;;;;;4917475;29;20432;-76
2021/07/26 10:35:52;;;;;;;9.43;4.47;;;;;;;;;;4917724;29;20487;-75
2021/07/26 10:38:42;;;;;;;6.70;5.25;;;;;;;;;;4917085;29;20031;-76
2021/07/26 10:41:07;;;;;;;7.05;5.97;;;;;;;;;;4917332;29;20471;-74
2021/07/26 10:43:53;;;;;;;8.27;5.85;;;;;;;;;;4917014;29;20028;-75
2021/07/26 10:46:18;;;;;;;9.25;6.07;;;;;;;;;;4916072;29;20091;-75
2021/07/26 10:48:53;;;;;;;8.32;6.60;;;;;;;;;;4917298;29;20099;-77
2021/07/26 10:51:53;;;;;;;8.13;6.15;;;;;;;;;;4917375;29;20499;-76
2021/07/26 10:54:33;;;;;;;6.53;5.22;;;;;;;;;;4877873;29;20568;-76
2021/07/26 10:57:06;;;;;;;6.50;5.28;;;;;;;;;;4912749;29;20032;-78
2021/07/26 11:00:10;;;;;;;5.75;5.03;;;;;;;;;;4917333;29;20100;-78
2021/07/26 11:02:37;;;;;;;8.23;5.60;;;;;;;;;;4916935;29;20028;-78
2021/07/26 11:05:27;;;;;;;5.65;5.15;;;;;;;;;;4917327;29;20028;-77
2021/07/26 11:08:15;;;;;;;5.20;4.10;;;;;;;;;;4917211;29;20112;-76
2021/07/26 11:10:44;;;;;;;7.55;4.00;;;;;;;;;;4915436;29;20498;-79
2021/07/26 11:13:09;;;;;;;;;;;;;;;;;;4917527;29;20040;-76
2021/07/26 11:15:48;;;;;;;6.03;4.10;;;;;;;;;;4917179;29;19922;-76
2021/07/26 11:18:20;;;;;;;4.32;3.67;;;;;;;;;;4916979;29;20024;-78
2021/07/26 11:20:59;;;;;;;5.40;3.80;;;;;;;;;;4917075;29;20440;-78
2021/07/26 11:23:39;;;;;;;5.40;3.53;;;;;;;;;;4917155;29;20079;-78
2021/07/26 11:26:12;;;;;;;7.57;3.80;;;;;;;;;;4917102;29;20038;-78
2021/07/26 11:28:38;;;;;;;4.72;3.30;;;;;;;;;;4916985;29;20472;-79
2021/07/26 11:31:04;;;;;;;5.05;3.83;;;;;;;;;;4915618;29;20043;-76
2021/07/26 11:33:31;;;;;;;5.22;3.58;;;;;;;;;;4916669;29;20032;-77
2021/07/26 11:35:59;;;;;;;6.55;3.90;;;;;;;;;;4916355;29;20032;-80
2021/07/26 11:38:24;;;;;;;3.40;3.10;;;;;;;;;;4915770;29;20027;-80
2021/07/26 11:40:50;;;;;;;5.65;3.03;;;;;;;;;;4917028;29;20028;-79
2021/07/26 11:43:15;;;;;;;5.13;3.00;;;;;;;;;;4916972;29;20047;-79
2021/07/26 16:11:49;;;;;;;5.22;3.72;;;;;;;;;;4878943;29;20053;-84
2021/07/26 16:14:14;;;;;;;3.92;3.60;;;;;;;;;;4880752;29;20025;-86
2021/07/26 16:16:40;;;;;;;6.78;4.47;;;;;;;;;;4881683;29;20541;-85
2021/07/26 16:19:05;;;;;;;7.15;5.50;;;;;;;;;;4882282;29;20103;-78
2021/07/26 16:21:31;;;;;;;5.30;4.20;;;;;;;;;;4865251;29;20084;-84
2021/07/26 16:23:57;;;;;;;6.15;4.30;;;;;;;;;;4882213;29;20033;-83
2021/07/26 16:26:22;;;;;;;4.80;4.00;;;;;;;;;;4865486;29;20029;-83
2021/07/26 16:28:48;;;;;;;7.05;3.90;;;;;;;;;;4881883;29;20492;-84
2021/07/26 16:31:14;;;;;;;5.68;3.95;;;;;;;;;;4881988;29;20029;-84
2021/07/26 16:33:40;;;;;;;4.13;3.33;;;;;;;;;;4881978;29;20105;-84
2021/07/26 16:36:06;;;;;;;4.28;3.80;;;;;;;;;;4881462;29;20075;-85
2021/07/26 16:38:31;;;;;;;4.97;3.70;;;;;;;;;;4881583;29;20073;-84
2021/07/26 16:40:57;;;;;;;5.28;4.03;;;;;;;;;;4881241;29;20472;-83
2021/07/26 16:43:22;;;;;;;4.25;3.63;;;;;;;;;;4881452;29;20044;-83
2021/07/26 16:45:48;;;;;;;8.10;3.92;;;;;;;;;;4881367;29;20115;-81
2021/07/26 16:48:13;;;;;;;5.30;3.90;;;;;;;;;;4881408;29;20029;-86
2021/07/26 16:50:39;;;;;;;8.05;3.88;;;;;;;;;;4882078;29;20039;-83
2021/07/26 16:53:05;;;;;;;4.63;4.00;;;;;;;;;;4886809;29;20040;-86
2021/07/26 16:55:31;;;;;;;8.25;4.22;;;;;;;;;;4888098;29;20036;-85
2021/07/26 16:57:56;;;;;;;6.28;4.30;;;;;;;;;;4882300;29;20085;-83
2021/07/26 17:00:22;;;;;;;4.80;4.20;;;;;;;;;;4881887;29;20035;-80
2021/07/26 17:02:47;;;;;;;7.65;4.60;;;;;;;;;;4881459;29;20477;-82
2021/07/26 17:05:13;;;;;;;6.13;4.57;;;;;;;;;;4881452;29;20037;-82
2021/07/26 17:07:39;;;;;;;8.38;4.57;;;;;;;;;;4881281;29;20064;-82
2021/07/26 17:10:05;;;;;;;7.20;4.60;;;;;;;;;;4881687;29;20469;-81
2021/07/26 17:12:31;;;;;;;7.55;5.40;;;;;;;;;;4881185;29;20052;-83
2021/07/26 17:14:57;;;;;;;7.20;5.05;;;;;;;;;;4880736;29;20115;-82
2021/07/26 17:17:24;;;;;;;5.97;4.88;;;;;;;;;;4864258;29;20107;-85
2021/07/26 17:19:49;;;;;;;6.32;5.13;;;;;;;;;;4880803;29;20021;-87
2021/07/26 17:22:16;;;;;;;6.15;5.55;;;;;;;;;;4878533;29;20040;-83
2021/07/26 17:24:41;;;;;;;10.48;5.47;;;;;;;;;;4878337;29;20040;-81
2021/07/26 17:27:07;;;;;;;6.88;5.35;;;;;;;;;;4880993;29;20037;-80
2021/07/26 17:29:32;;;;;;;6.47;5.28;;;;;;;;;;4880971;29;20025;-81
2021/07/26 17:31:58;;;;;;;8.25;5.43;;;;;;;;;;4880913;29;20461;-82
2021/07/26 17:34:23;;;;;;;12.82;6.20;;;;;;;;;;4880761;29;20537;-82
2021/07/26 17:36:48;;;;;;;8.35;5.53;;;;;;;;;;4881190;29;20100;-82
2021/07/26 17:39:14;;;;;;;8.75;6.20;;;;;;;;;;4880803;29;20078;-84
2021/07/26 17:41:39;;;;;;;6.93;5.95;;;;;;;;;;4879054;29;20120;-86
2021/07/26 17:44:05;;;;;;;8.27;6.05;;;;;;;;;;4880380;29;20036;-86
2021/07/26 17:46:31;;;;;;;7.80;6.10;;;;;;;;;;4879843;29;20429;-83
2021/07/26 17:48:58;;;;;;;8.88;6.95;;;;;;;;;;4863695;29;20025;-82
2021/07/26 17:51:24;;;;;;;8.18;6.22;;;;;;;;;;4880630;29;20469;-83
2021/07/26 17:53:49;;;;;;;10.82;6.63;;;;;;;;;;4880461;29;20025;-83
2021/07/26 17:56:15;;;;;;;11.82;6.22;;;;;;;;;;4880462;29;20477;-82
2021/07/26 17:58:40;;;;;;;8.13;6.25;;;;;;;;;;4880244;29;20503;-82
2021/07/26 18:01:08;;;;;;;8.88;5.68;;;;;;;;;;4880419;29;20064;-82
2021/07/26 18:03:33;;;;;;;6.25;5.45;;;;;;;;;;4880384;29;20026;-82
2021/07/26 18:06:01;;;;;;;7.75;5.85;;;;;;;;;;4880040;29;20040;-82
2021/07/26 18:08:26;;;;;;;9.40;5.93;;;;;;;;;;4880148;29;20052;-85
2021/07/26 18:10:52;;;;;;;9.55;6.25;;;;;;;;;;4880407;29;20029;-80
2021/07/26 18:13:17;;;;;;;9.00;6.07;;;;;;;;;;4880215;29;20045;-82
2021/07/26 18:15:43;;;;;;;8.02;6.25;;;;;;;;;;4879296;29;20037;-83
2021/07/26 18:18:09;;;;;;;9.98;7.68;;;;;;;;;;4861524;29;20029;-83
2021/07/26 18:20:36;;;;;;;9.77;7.15;;;;;;;;;;4861748;29;20029;-84
2021/07/26 18:23:03;;;;;;;9.15;7.45;;;;;;;;;;4861877;29;20422;-82
2021/07/26 18:25:28;;;;;;;7.68;6.97;;;;;;;;;;4861689;29;20034;-81
2021/07/26 18:27:55;;;;;;;8.32;7.05;;;;;;;;;;4868288;29;20032;-81
2021/07/26 18:30:20;;;;;;;9.70;7.15;;;;;;;;;;4879674;29;20021;-79
2021/07/26 18:32:46;;;;;;;9.90;7.20;;;;;;;;;;4880083;29;20036;-81
2021/07/26 18:35:11;;;;;;;8.13;6.63;;;;;;;;;;4879619;29;20036;-81
2021/07/26 18:37:41;;;;;;;8.38;6.55;;;;;;;;;;4879702;29;20042;-81
2021/07/26 18:40:08;;;;;;;7.60;5.72;;;;;;;;;;4879888;29;20033;-80
2021/07/26 18:42:38;;;;;;;9.38;7.70;;;;;;;;;;4879923;29;20044;-80
2021/07/26 18:45:08;;;;;;;11.27;7.00;;;;;;;;;;4879521;29;20492;-80
2021/07/26 18:47:38;;;;;;;7.53;6.82;;;;;;;;;;4879873;29;20033;-80
2021/07/26 18:50:05;;;;;;;8.38;6.47;;;;;;;;;;4879566;29;20033;-80
2021/07/26 18:52:31;;;;;;;6.75;6.05;;;;;;;;;;4879781;29;20029;-80
2021/07/26 18:55:00;;;;;;;9.55;6.78;;;;;;;;;;4879601;29;20044;-80
2021/07/26 18:57:27;;;;;;;8.50;6.88;;;;;;;;;;4879929;29;20492;-80
2021/07/26 18:59:54;;;;;;;9.43;7.18;;;;;;;;;;4885434;29;20088;-79
2021/07/26 19:02:19;;;;;;;10.90;7.10;;;;;;;;;;4885738;29;20025;-81
2021/07/26 19:04:45;;;;;;;11.25;8.23;;;;;;;;;;4884823;29;20365;-87
2021/07/26 19:07:10;;;;;;;17.42;8.75;;;;;;;;;;4886043;29;20036;-78
2021/07/26 19:09:36;;;;;;;13.35;9.77;;;;;;;;;;4885671;29;20489;-80
2021/07/26 19:12:03;;;;;;;10.88;7.88;;;;;;;;;;4885584;29;20048;-80
2021/07/26 19:14:28;;;;;;;10.13;7.47;;;;;;;;;;4885734;29;20033;-80
2021/07/26 19:16:54;;;;;;;10.93;7.55;;;;;;;;;;4869063;29;20041;-79
2021/07/26 19:19:19;;;;;;;8.85;7.15;;;;;;;;;;4885823;29;20504;-80
2021/07/26 19:21:47;;;;;;;12.82;7.60;;;;;;;;;;4885747;29;20033;-79
2021/07/26 19:24:12;;;;;;;9.65;7.38;;;;;;;;;;4885757;29;20112;-80
2021/07/26 19:26:38;;;;;;;9.43;6.88;;;;;;;;;;4885680;29;20413;-80
2021/07/26 19:29:03;;;;;;;13.65;7.80;;;;;;;;;;4885838;29;20036;-80
2021/07/26 19:31:29;;;;;;;7.47;5.90;;;;;;;;;;4885616;29;20385;-78
2021/07/26 19:33:54;;;;;;;8.10;6.20;;;;;;;;;;4869027;29;20044;-77
2021/07/26 19:36:20;;;;;;;9.82;6.18;;;;;;;;;;4885790;29;20040;-78
2021/07/26 19:38:45;;;;;;;8.68;6.57;;;;;;;;;;4885610;29;20040;-82
2021/07/26 19:41:11;;;;;;;10.30;7.22;;;;;;;;;;4885695;29;20032;-79
2021/07/26 19:43:36;;;;;;;8.40;6.45;;;;;;;;;;4885692;29;20049;-79
2021/07/26 19:46:03;;;;;;;9.35;6.93;;;;;;;;;;4885787;29;20056;-79
2021/07/26 19:48:29;;;;;;;11.88;8.70;;;;;;;;;;4885382;29;20033;-79
2021/07/26 19:50:54;;;;;;;10.93;9.35;;;;;;;;;;4885518;29;20111;-78
2021/07/26 19:53:20;;;;;;;12.55;10.07;;;;;;;;;;4885693;29;20412;-79
2021/07/26 19:55:45;;;;;;;13.85;10.77;;;;;;;;;;4885567;29;20165;-78
2021/07/26 19:58:11;;;;;;;13.75;9.95;;;;;;;;;;4885240;29;20108;-81
2021/07/26 20:00:36;;;;;;;11.30;9.80;;;;;;;;;;4868516;29;20388;-81
2021/07/26 20:03:03;;;;;;;13.00;9.52;;;;;;;;;;4885334;29;20104;-82
2021/07/26 20:05:29;;;;;;;14.95;10.93;;;;;;;;;;4885500;29;20032;-82
2021/07/26 20:07:56;;;;;;;16.00;9.32;;;;;;;;;;4868627;29;20021;-82
2021/07/26 20:10:21;;;;;;;13.43;9.60;;;;;;;;;;4882644;29;20025;-82
2021/07/26 20:12:47;;;;;;;13.55;10.68;;;;;;;;;;4882198;29;20056;-82
2021/07/26 20:15:17;;;;;;;14.00;9.70;;;;;;;;;;4882230;29;20029;-82
2021/07/26 20:17:45;;;;;;;11.35;9.02;;;;;;;;;;4882191;29;20033;-82
2021/07/26 20:20:12;;;;;;;14.75;10.02;;;;;;;;;;4882300;29;20445;-82
2021/07/26 20:22:37;;;;;;;14.75;10.98;;;;;;;;;;4882262;29;20488;-82
2021/07/26 20:25:03;;;;;;;10.82;8.50;;;;;;;;;;4882132;29;20033;-82
2021/07/26 20:27:28;;;;;;;10.88;8.13;;;;;;;;;;4881922;29;20058;-82
2021/07/26 20:29:56;;;;;;;12.55;7.78;;;;;;;;;;4865550;29;20093;-82
2021/07/26 20:32:21;;;;;;;13.40;7.80;;;;;;;;;;4865463;29;20354;-82
2021/07/26 20:34:46;;;;;;;10.20;6.93;;;;;;;;;;4882022;29;20044;-82
2021/07/26 20:37:12;;;;;;;7.47;6.30;;;;;;;;;;4882259;29;20033;-82
2021/07/26 20:39:37;;;;;;;9.90;6.82;;;;;;;;;;4865144;29;20573;-82
2021/07/26 20:42:03;;;;;;;8.70;7.10;;;;;;;;;;4881814;29;20055;-82
2021/07/26 20:44:29;;;;;;;9.40;8.07;;;;;;;;;;4882009;29;20052;-82
2021/07/26 20:46:54;;;;;;;11.82;9.20;;;;;;;;;;4882083;29;20389;-82
2021/07/26 20:49:19;;;;;;;11.20;7.72;;;;;;;;;;4865125;29;20457;-82
2021/07/26 20:51:45;;;;;;;14.07;8.30;;;;;;;;;;4881655;29;20025;-82
2021/07/26 20:54:11;;;;;;;9.02;7.30;;;;;;;;;;4881720;29;20032;-82
2021/07/26 20:56:38;;;;;;;12.40;8.38;;;;;;;;;;4881773;29;20477;-82
2021/07/26 20:59:04;;;;;;;11.60;8.40;;;;;;;;;;4881801;29;20056;-82
2021/07/26 21:01:29;;;;;;;11.98;7.85;;;;;;;;;;4881727;29;20083;-82
2021/07/26 21:03:55;;;;;;;14.48;8.13;;;;;;;;;;4881658;29;20037;-82
2021/07/26 21:06:20;;;;;;;13.15;6.97;;;;;;;;;;4881606;29;20059;-82
2021/07/26 21:08:46;;;;;;;12.70;8.75;;;;;;;;;;4881146;29;20060;-82
2021/07/26 21:11:11;;;;;;;9.80;7.05;;;;;;;;;;4881119;29;20029;-83
2021/07/26 21:13:38;;;;;;;9.38;6.80;;;;;;;;;;4881391;29;20033;-82
2021/07/26 21:16:08;;;;;;;10.65;7.22;;;;;;;;;;4881424;29;20029;-82
2021/07/26 21:18:37;;;;;;;8.77;7.03;;;;;;;;;;4881297;29;20036;-82
2021/07/26 21:21:06;;;;;;;11.70;7.37;;;;;;;;;;4881294;29;20033;-82
2021/07/26 21:23:31;;;;;;;9.48;7.10;;;;;;;;;;4881022;29;20291;-81
2021/07/26 21:25:58;;;;;;;12.80;7.40;;;;;;;;;;4881328;29;20033;-82
2021/07/26 21:28:25;;;;;;;12.07;7.75;;;;;;;;;;4864262;29;20040;-81
2021/07/26 21:30:51;;;;;;;10.15;7.85;;;;;;;;;;4881277;29;20025;-82
2021/07/26 21:33:16;;;;;;;8.95;7.63;;;;;;;;;;4881238;29;20114;-82
2021/07/26 21:35:41;;;;;;;12.18;7.97;;;;;;;;;;4881177;29;20037;-82
2021/07/26 21:38:07;;;;;;;11.35;7.93;;;;;;;;;;4880705;29;20106;-82
2021/07/26 21:40:32;;;;;;;12.15;7.68;;;;;;;;;;4881131;29;20029;-82
2021/07/26 21:42:58;;;;;;;10.20;7.30;;;;;;;;;;4880973;29;20041;-82
2021/07/26 21:45:23;;;;;;;8.93;6.93;;;;;;;;;;4880912;29;20089;-82
2021/07/26 21:47:50;;;;;;;10.70;8.07;;;;;;;;;;4880734;29;20117;-82
2021/07/26 21:50:16;;;;;;;10.35;7.22;;;;;;;;;;4880803;29;20052;-82
2021/07/26 21:52:41;;;;;;;10.90;7.88;;;;;;;;;;4880640;29;20132;-82
2021/07/26 21:55:07;;;;;;;9.65;7.97;;;;;;;;;;4880648;29;20040;-81
